Terminal Aerodrome Forecast
Issued by NWS

Home | Current Version | Previous Version | Text Only | Print | Product List | Glossary On
Versions: 1 2 3 4 5 6 7 8 9 10 11 12 13 14 15 16 17 18 19 20 21 22 23
000
FTUS42 TJSJ 221400 AAB
TAFIST
TAF AMD
TIST 221408Z 2214/2312 12015KT P6SM VCTS SCT020CB BKN030
      TEMPO 2214/2216 15018G30KT 1SM +SHRA SCT014 BKN040 OVC080
     FM221600 14015KT P6SM VCTS SCT015CB BKN025 OVC040=

USA.gov is the U.S. government's official web portal to all federal, state and local government web resources and services.